IBE57YL LEMD-EDDL
Flight info
| Callsign | IBE57YL |
|---|---|
| Flight time | 1h 59m |
| Altitude | 36000 |
| Route | RBO N867 DGO L176 LUSEM DCT LULUT DCT ADABI DCT BOKNO UN858 VANAD UN874 PIWIZ DCT TSU UM163 LEQOS DCT CTL DCT ARDEN/N0452F330 DCT KOMOB T859 NVO T857 BIKMU BIKMU1A |
| Aircraft | A21N/M-SDE2E3FGHIRWXY/LB1 |
Departure
| Time | 2026-05-01 07:47 |
|---|---|
| Airport | Adolfo Suárez Madrid–Barajas Airport (LEMD) |
Arrival
| Time | 2026-05-01 09:46 |
|---|---|
| Airport | Düsseldorf Airport (EDDL) |
| Time | Latitude | Longitude | Altitude | Speed | Heading |
|---|---|---|---|---|---|
| 2026-05-01 07:35 | 40.48955 | -3.56368 | 1987 ft | 0 kts | 269° |
| 2026-05-01 07:43 | 40.48955 | -3.56383 | 1984 ft | 7 kts | 270° |
| 2026-05-01 07:44 | 40.49193 | -3.56455 | 1987 ft | 31 kts | 359° |
| 2026-05-01 07:44 | 40.49668 | -3.56457 | 1987 ft | 43 kts | 0° |
| 2026-05-01 07:45 | 40.49897 | -3.56451 | 1987 ft | 27 kts | 18° |
| 2026-05-01 07:45 | 40.49943 | -3.56245 | 1983 ft | 26 kts | 90° |
| 2026-05-01 07:45 | 40.49945 | -3.56079 | 1983 ft | 15 kts | 83° |
| 2026-05-01 07:45 | 40.50005 | -3.55954 | 1987 ft | 18 kts | 33° |
| 2026-05-01 07:46 | 40.50123 | -3.55922 | 1983 ft | 0 kts | 0° |
| 2026-05-01 07:46 | 40.50124 | -3.55922 | 1984 ft | 7 kts | 0° |
| 2026-05-01 07:46 | 40.51421 | -3.55929 | 1996 ft | 172 kts | 359° |
| 2026-05-01 07:47 | 40.52654 | -3.55975 | 2750 ft | 173 kts | 358° |
| 2026-05-01 07:47 | 40.53843 | -3.55878 | 3707 ft | 179 kts | 11° |
| 2026-05-01 07:47 | 40.55149 | -3.55467 | 4389 ft | 209 kts | 17° |
| 2026-05-01 07:47 | 40.56604 | -3.54909 | 5331 ft | 224 kts | 18° |
| 2026-05-01 07:48 | 40.59638 | -3.53473 | 7413 ft | 242 kts | 33° |
| 2026-05-01 07:48 | 40.61079 | -3.52058 | 8025 ft | 275 kts | 40° |
| 2026-05-01 07:48 | 40.62576 | -3.50362 | 8998 ft | 292 kts | 41° |
| 2026-05-01 07:49 | 40.64138 | -3.48571 | 10192 ft | 302 kts | 41° |
| 2026-05-01 07:49 | 40.67606 | -3.44644 | 11555 ft | 353 kts | 40° |
| 2026-05-01 07:49 | 40.69504 | -3.42514 | 12614 ft | 362 kts | 40° |
| 2026-05-01 07:50 | 40.71433 | -3.40350 | 13832 ft | 366 kts | 40° |
| 2026-05-01 07:50 | 40.75349 | -3.35959 | 15933 ft | 378 kts | 40° |
| 2026-05-01 07:50 | 40.77366 | -3.33695 | 16964 ft | 383 kts | 40° |
| 2026-05-01 07:51 | 40.79414 | -3.31394 | 17985 ft | 389 kts | 40° |
| 2026-05-01 07:51 | 40.81489 | -3.29062 | 18906 ft | 395 kts | 40° |
| 2026-05-01 07:51 | 40.83646 | -3.26770 | 19710 ft | 401 kts | 35° |
| 2026-05-01 07:52 | 40.88802 | -3.23825 | 21347 ft | 411 kts | 13° |
| 2026-05-01 07:52 | 40.91608 | -3.23017 | 22163 ft | 415 kts | 9° |
| 2026-05-01 07:52 | 40.94475 | -3.22369 | 22981 ft | 420 kts | 8° |
| 2026-05-01 07:53 | 41.00326 | -3.21205 | 24388 ft | 430 kts | 7° |
| 2026-05-01 07:53 | 41.03305 | -3.20602 | 24988 ft | 435 kts | 7° |
| 2026-05-01 07:53 | 41.06273 | -3.19977 | 25579 ft | 439 kts | 8° |
| 2026-05-01 07:53 | 41.09305 | -3.19317 | 26178 ft | 444 kts | 8° |
| 2026-05-01 07:54 | 41.15463 | -3.17939 | 27308 ft | 452 kts | 8° |
| 2026-05-01 07:55 | 41.24888 | -3.15803 | 28914 ft | 464 kts | 8° |
| 2026-05-01 07:55 | 41.31300 | -3.14351 | 29913 ft | 471 kts | 8° |
| 2026-05-01 07:56 | 41.40979 | -3.12155 | 31598 ft | 468 kts | 8° |
| 2026-05-01 07:56 | 41.47361 | -3.10703 | 32854 ft | 462 kts | 8° |
| 2026-05-01 07:57 | 41.50518 | -3.09984 | 33447 ft | 459 kts | 8° |
| 2026-05-01 07:57 | 41.56788 | -3.08561 | 34532 ft | 454 kts | 7° |
| 2026-05-01 07:58 | 41.63015 | -3.07149 | 35352 ft | 453 kts | 7° |
| 2026-05-01 07:58 | 41.69182 | -3.05748 | 36075 ft | 453 kts | 7° |
| 2026-05-01 07:59 | 41.75408 | -3.04329 | 36172 ft | 454 kts | 8° |
| 2026-05-01 08:00 | 41.94137 | -3.00009 | 36169 ft | 456 kts | 8° |
| 2026-05-01 08:01 | 42.06648 | -2.97109 | 36164 ft | 456 kts | 8° |
| 2026-05-01 08:02 | 42.16038 | -2.94926 | 36170 ft | 456 kts | 8° |
| 2026-05-01 08:03 | 42.25414 | -2.92739 | 36169 ft | 455 kts | 8° |
| 2026-05-01 08:03 | 42.34900 | -2.90523 | 36168 ft | 466 kts | 8° |
| 2026-05-01 08:04 | 42.47231 | -2.85364 | 36179 ft | 470 kts | 33° |
| 2026-05-01 08:05 | 42.54827 | -2.76868 | 36181 ft | 472 kts | 41° |
| 2026-05-01 08:06 | 42.62106 | -2.67926 | 36184 ft | 472 kts | 41° |
| 2026-05-01 08:07 | 42.71933 | -2.55956 | 36185 ft | 475 kts | 41° |
| 2026-05-01 08:08 | 42.79287 | -2.47014 | 36183 ft | 475 kts | 41° |
| 2026-05-01 08:09 | 42.89133 | -2.34989 | 36185 ft | 475 kts | 41° |
| 2026-05-01 08:09 | 42.94021 | -2.28998 | 36183 ft | 475 kts | 41° |
| 2026-05-01 08:10 | 43.03857 | -2.16896 | 36187 ft | 474 kts | 42° |
| 2026-05-01 08:11 | 43.13613 | -2.04826 | 36184 ft | 472 kts | 42° |
| 2026-05-01 08:12 | 43.20898 | -1.95788 | 36184 ft | 472 kts | 42° |
| 2026-05-01 08:13 | 43.28208 | -1.86690 | 36183 ft | 472 kts | 42° |
| 2026-05-01 08:13 | 43.36268 | -1.78978 | 36183 ft | 471 kts | 30° |
| 2026-05-01 08:14 | 43.41802 | -1.74245 | 36190 ft | 471 kts | 33° |
| 2026-05-01 08:14 | 43.47284 | -1.69290 | 36184 ft | 471 kts | 33° |
| 2026-05-01 08:15 | 43.55477 | -1.61816 | 36183 ft | 471 kts | 33° |
| 2026-05-01 08:16 | 43.60955 | -1.56835 | 36184 ft | 471 kts | 33° |
| 2026-05-01 08:16 | 43.66426 | -1.51860 | 36183 ft | 470 kts | 33° |
| 2026-05-01 08:17 | 43.71851 | -1.46917 | 36186 ft | 470 kts | 33° |
| 2026-05-01 08:17 | 43.77303 | -1.41937 | 36187 ft | 469 kts | 33° |
| 2026-05-01 08:18 | 43.82752 | -1.36949 | 36196 ft | 469 kts | 33° |
| 2026-05-01 08:19 | 43.93655 | -1.26934 | 36190 ft | 469 kts | 33° |
| 2026-05-01 08:19 | 43.99105 | -1.21910 | 36193 ft | 469 kts | 33° |
| 2026-05-01 08:20 | 44.04507 | -1.16920 | 36195 ft | 469 kts | 33° |
| 2026-05-01 08:20 | 44.09943 | -1.11888 | 36194 ft | 469 kts | 33° |
| 2026-05-01 08:21 | 44.14473 | -1.07686 | 36197 ft | 469 kts | 33° |
| 2026-05-01 08:21 | 44.19906 | -1.02635 | 36197 ft | 469 kts | 33° |
| 2026-05-01 08:22 | 44.25345 | -0.97568 | 36199 ft | 470 kts | 33° |
| 2026-05-01 08:22 | 44.30779 | -0.92494 | 36199 ft | 470 kts | 33° |
| 2026-05-01 08:23 | 44.36217 | -0.87404 | 36202 ft | 470 kts | 33° |
| 2026-05-01 08:23 | 44.41880 | -0.82857 | 36216 ft | 470 kts | 25° |
| 2026-05-01 08:24 | 44.47832 | -0.79068 | 36206 ft | 469 kts | 23° |
| 2026-05-01 08:24 | 44.53786 | -0.75448 | 36207 ft | 469 kts | 22° |
| 2026-05-01 08:25 | 44.59771 | -0.71821 | 36211 ft | 468 kts | 22° |
| 2026-05-01 08:25 | 44.65748 | -0.68172 | 36211 ft | 467 kts | 22° |
| 2026-05-01 08:26 | 44.71702 | -0.64516 | 36211 ft | 467 kts | 22° |
| 2026-05-01 08:26 | 44.77657 | -0.60848 | 36211 ft | 467 kts | 22° |
| 2026-05-01 08:27 | 44.83585 | -0.57188 | 36211 ft | 467 kts | 22° |
| 2026-05-01 08:27 | 44.89531 | -0.53510 | 36212 ft | 467 kts | 22° |
| 2026-05-01 08:28 | 44.95489 | -0.49816 | 36213 ft | 467 kts | 23° |
| 2026-05-01 08:28 | 45.01439 | -0.46118 | 36219 ft | 467 kts | 22° |
| 2026-05-01 08:29 | 45.07351 | -0.42436 | 36217 ft | 466 kts | 22° |
| 2026-05-01 08:29 | 45.13293 | -0.38727 | 36219 ft | 466 kts | 22° |
| 2026-05-01 08:30 | 45.19234 | -0.35010 | 36228 ft | 466 kts | 22° |
| 2026-05-01 08:30 | 45.25172 | -0.31285 | 36222 ft | 466 kts | 22° |
| 2026-05-01 08:31 | 45.31056 | -0.27588 | 36225 ft | 466 kts | 22° |
| 2026-05-01 08:31 | 45.36987 | -0.23851 | 36227 ft | 466 kts | 22° |
| 2026-05-01 08:32 | 45.42906 | -0.20114 | 36229 ft | 465 kts | 22° |
| 2026-05-01 08:32 | 45.48825 | -0.16368 | 36231 ft | 465 kts | 22° |
| 2026-05-01 08:33 | 45.54744 | -0.12613 | 36233 ft | 465 kts | 22° |
| 2026-05-01 08:33 | 45.60668 | -0.08846 | 36234 ft | 465 kts | 22° |
| 2026-05-01 08:34 | 45.66578 | -0.05079 | 36233 ft | 465 kts | 22° |
| 2026-05-01 08:34 | 45.72448 | -0.01330 | 36231 ft | 465 kts | 22° |
| 2026-05-01 08:35 | 45.78360 | 0.02456 | 36244 ft | 464 kts | 22° |
| 2026-05-01 08:35 | 45.84262 | 0.06244 | 36243 ft | 464 kts | 22° |
| 2026-05-01 08:36 | 45.90121 | 0.10012 | 36226 ft | 464 kts | 22° |
| 2026-05-01 08:36 | 45.96012 | 0.13810 | 36226 ft | 464 kts | 22° |
| 2026-05-01 08:37 | 46.01901 | 0.17616 | 36233 ft | 463 kts | 22° |
| 2026-05-01 08:37 | 46.07786 | 0.21428 | 36230 ft | 463 kts | 22° |
| 2026-05-01 08:38 | 46.13657 | 0.25240 | 36234 ft | 463 kts | 22° |
| 2026-05-01 08:38 | 46.19524 | 0.29058 | 36229 ft | 462 kts | 22° |
| 2026-05-01 08:39 | 46.25373 | 0.32875 | 36234 ft | 461 kts | 22° |
| 2026-05-01 08:39 | 46.31191 | 0.36679 | 36230 ft | 461 kts | 22° |
| 2026-05-01 08:40 | 46.39959 | 0.42427 | 36240 ft | 461 kts | 22° |
| 2026-05-01 08:40 | 46.45814 | 0.46278 | 36239 ft | 462 kts | 22° |
| 2026-05-01 08:41 | 46.51670 | 0.50139 | 36240 ft | 462 kts | 22° |
| 2026-05-01 08:41 | 46.57654 | 0.53434 | 36246 ft | 459 kts | 14° |
| 2026-05-01 08:42 | 46.63823 | 0.55671 | 36238 ft | 460 kts | 12° |
| 2026-05-01 08:42 | 46.70071 | 0.57724 | 36238 ft | 460 kts | 11° |
| 2026-05-01 08:43 | 46.76318 | 0.59750 | 36240 ft | 460 kts | 11° |
| 2026-05-01 08:43 | 46.82573 | 0.61802 | 36241 ft | 460 kts | 11° |
| 2026-05-01 08:44 | 46.88780 | 0.63858 | 36241 ft | 460 kts | 11° |
| 2026-05-01 08:44 | 46.95025 | 0.65936 | 36240 ft | 460 kts | 11° |
| 2026-05-01 08:45 | 47.01268 | 0.68017 | 36243 ft | 461 kts | 12° |
| 2026-05-01 08:45 | 47.07603 | 0.69414 | 36245 ft | 460 kts | 4° |
| 2026-05-01 08:46 | 47.13989 | 0.70183 | 36238 ft | 461 kts | 3° |
| 2026-05-01 08:46 | 47.20393 | 0.70833 | 36239 ft | 461 kts | 4° |
| 2026-05-01 08:47 | 47.26779 | 0.71474 | 36239 ft | 463 kts | 4° |
| 2026-05-01 08:47 | 47.33215 | 0.72139 | 36241 ft | 463 kts | 4° |
| 2026-05-01 08:48 | 47.39655 | 0.72813 | 36236 ft | 464 kts | 4° |
| 2026-05-01 08:48 | 47.46106 | 0.73494 | 36238 ft | 465 kts | 5° |
| 2026-05-01 08:49 | 47.52428 | 0.75352 | 36240 ft | 464 kts | 17° |
| 2026-05-01 08:49 | 47.58601 | 0.78207 | 36237 ft | 464 kts | 19° |
| 2026-05-01 08:50 | 47.64688 | 0.81232 | 36235 ft | 464 kts | 20° |
| 2026-05-01 08:50 | 47.70804 | 0.84294 | 36230 ft | 464 kts | 20° |
| 2026-05-01 08:51 | 47.76957 | 0.87356 | 36226 ft | 467 kts | 20° |
| 2026-05-01 08:51 | 47.83130 | 0.90421 | 36219 ft | 468 kts | 20° |
| 2026-05-01 08:52 | 47.89308 | 0.93519 | 36216 ft | 468 kts | 20° |
| 2026-05-01 08:52 | 47.95438 | 0.96622 | 36221 ft | 468 kts | 20° |
| 2026-05-01 08:53 | 48.01606 | 0.99752 | 36212 ft | 468 kts | 20° |
| 2026-05-01 08:53 | 48.07782 | 1.02891 | 36217 ft | 468 kts | 21° |
| 2026-05-01 08:54 | 48.13955 | 1.06036 | 36214 ft | 468 kts | 21° |
| 2026-05-01 08:54 | 48.19928 | 1.09817 | 36215 ft | 464 kts | 33° |
| 2026-05-01 08:55 | 48.22545 | 1.12629 | 36207 ft | 461 kts | 44° |
| 2026-05-01 08:55 | 48.24803 | 1.16015 | 36208 ft | 458 kts | 50° |
| 2026-05-01 08:55 | 48.28916 | 1.23222 | 36219 ft | 457 kts | 53° |
| 2026-05-01 08:56 | 48.32901 | 1.30662 | 36219 ft | 457 kts | 54° |
| 2026-05-01 08:56 | 48.36879 | 1.38109 | 36216 ft | 456 kts | 54° |
| 2026-05-01 08:57 | 48.40869 | 1.45530 | 36218 ft | 456 kts | 54° |
| 2026-05-01 08:57 | 48.44870 | 1.52953 | 36204 ft | 457 kts | 54° |
| 2026-05-01 08:58 | 48.48879 | 1.60405 | 36226 ft | 457 kts | 54° |
| 2026-05-01 08:58 | 48.52877 | 1.67858 | 36218 ft | 457 kts | 54° |
| 2026-05-01 08:59 | 48.56877 | 1.75338 | 36232 ft | 457 kts | 54° |
| 2026-05-01 08:59 | 48.60867 | 1.82821 | 36223 ft | 457 kts | 54° |
| 2026-05-01 09:00 | 48.64831 | 1.90277 | 36235 ft | 457 kts | 54° |
| 2026-05-01 09:00 | 48.68819 | 1.97800 | 36238 ft | 458 kts | 54° |
| 2026-05-01 09:01 | 48.72804 | 2.05339 | 36237 ft | 458 kts | 54° |
| 2026-05-01 09:01 | 48.76139 | 2.13456 | 36241 ft | 452 kts | 68° |
| 2026-05-01 09:02 | 48.78637 | 2.22134 | 36237 ft | 451 kts | 71° |
| 2026-05-01 09:02 | 48.80979 | 2.30963 | 36239 ft | 451 kts | 71° |
| 2026-05-01 09:03 | 48.83298 | 2.39818 | 36238 ft | 451 kts | 71° |
| 2026-05-01 09:03 | 48.85626 | 2.48665 | 36237 ft | 451 kts | 71° |
| 2026-05-01 09:04 | 48.87960 | 2.57521 | 36238 ft | 451 kts | 71° |
| 2026-05-01 09:04 | 48.90276 | 2.66328 | 36237 ft | 451 kts | 71° |
| 2026-05-01 09:05 | 48.92597 | 2.75191 | 36239 ft | 451 kts | 71° |
| 2026-05-01 09:05 | 48.94912 | 2.84070 | 36246 ft | 451 kts | 71° |
| 2026-05-01 09:06 | 48.97219 | 2.92955 | 36247 ft | 451 kts | 71° |
| 2026-05-01 09:06 | 48.99132 | 3.00345 | 36249 ft | 451 kts | 71° |
| 2026-05-01 09:07 | 49.01430 | 3.09255 | 36237 ft | 451 kts | 71° |
| 2026-05-01 09:07 | 49.03716 | 3.18154 | 36253 ft | 450 kts | 71° |
| 2026-05-01 09:08 | 49.05994 | 3.27057 | 36253 ft | 451 kts | 71° |
| 2026-05-01 09:08 | 49.08268 | 3.35978 | 36255 ft | 451 kts | 71° |
| 2026-05-01 09:09 | 49.10532 | 3.44895 | 36252 ft | 451 kts | 71° |
| 2026-05-01 09:09 | 49.12818 | 3.53749 | 36242 ft | 452 kts | 68° |
| 2026-05-01 09:10 | 49.16215 | 3.61844 | 36258 ft | 455 kts | 53° |
| 2026-05-01 09:10 | 49.20305 | 3.69224 | 36257 ft | 455 kts | 51° |
| 2026-05-01 09:11 | 49.24528 | 3.76473 | 36255 ft | 456 kts | 50° |
| 2026-05-01 09:11 | 49.28744 | 3.83722 | 36265 ft | 456 kts | 51° |
| 2026-05-01 09:12 | 49.32942 | 3.91013 | 36264 ft | 456 kts | 51° |
| 2026-05-01 09:12 | 49.37096 | 3.98279 | 36274 ft | 456 kts | 51° |
| 2026-05-01 09:13 | 49.41284 | 4.05631 | 36273 ft | 456 kts | 51° |
| 2026-05-01 09:13 | 49.45456 | 4.12973 | 36275 ft | 456 kts | 51° |
| 2026-05-01 09:14 | 49.49628 | 4.20334 | 36277 ft | 456 kts | 51° |
| 2026-05-01 09:14 | 49.53770 | 4.27662 | 36279 ft | 456 kts | 51° |
| 2026-05-01 09:15 | 49.57933 | 4.35048 | 36279 ft | 456 kts | 51° |
| 2026-05-01 09:15 | 49.62066 | 4.42401 | 36282 ft | 456 kts | 51° |
| 2026-05-01 09:16 | 49.66217 | 4.49809 | 36277 ft | 456 kts | 51° |
| 2026-05-01 09:17 | 49.72425 | 4.60926 | 36285 ft | 455 kts | 51° |
| 2026-05-01 09:17 | 49.78621 | 4.72068 | 36285 ft | 455 kts | 51° |
| 2026-05-01 09:18 | 49.84814 | 4.83252 | 36285 ft | 455 kts | 51° |
| 2026-05-01 09:19 | 49.90972 | 4.94423 | 36285 ft | 456 kts | 52° |
| 2026-05-01 09:20 | 49.97158 | 5.05696 | 36285 ft | 456 kts | 51° |
| 2026-05-01 09:21 | 50.05385 | 5.20751 | 36280 ft | 456 kts | 50° |
| 2026-05-01 09:21 | 50.11505 | 5.32011 | 36284 ft | 455 kts | 50° |
| 2026-05-01 09:22 | 50.15579 | 5.39532 | 35914 ft | 449 kts | 51° |
| 2026-05-01 09:22 | 50.19589 | 5.46958 | 34268 ft | 446 kts | 51° |
| 2026-05-01 09:23 | 50.21577 | 5.50645 | 33420 ft | 442 kts | 51° |
| 2026-05-01 09:23 | 50.25462 | 5.57869 | 32074 ft | 428 kts | 51° |
| 2026-05-01 09:24 | 50.29243 | 5.64920 | 30717 ft | 417 kts | 51° |
| 2026-05-01 09:24 | 50.31098 | 5.68386 | 29989 ft | 412 kts | 51° |
| 2026-05-01 09:24 | 50.34732 | 5.75192 | 28464 ft | 403 kts | 51° |
| 2026-05-01 09:25 | 50.38291 | 5.81874 | 26775 ft | 399 kts | 51° |
| 2026-05-01 09:25 | 50.41865 | 5.88607 | 24751 ft | 406 kts | 51° |
| 2026-05-01 09:26 | 50.43684 | 5.92036 | 23994 ft | 401 kts | 51° |
| 2026-05-01 09:26 | 50.47203 | 5.98679 | 22229 ft | 395 kts | 52° |
| 2026-05-01 09:26 | 50.48946 | 6.01975 | 21337 ft | 391 kts | 52° |
| 2026-05-01 09:27 | 50.52379 | 6.08477 | 19768 ft | 380 kts | 52° |
| 2026-05-01 09:27 | 50.54058 | 6.11666 | 18931 ft | 378 kts | 54° |
| 2026-05-01 09:27 | 50.55722 | 6.14835 | 18093 ft | 374 kts | 53° |
| 2026-05-01 09:28 | 50.57372 | 6.17980 | 17215 ft | 370 kts | 54° |
| 2026-05-01 09:28 | 50.58999 | 6.21082 | 16386 ft | 365 kts | 54° |
| 2026-05-01 09:28 | 50.60598 | 6.24134 | 15761 ft | 356 kts | 54° |
| 2026-05-01 09:28 | 50.62159 | 6.27108 | 15157 ft | 348 kts | 53° |
| 2026-05-01 09:29 | 50.65255 | 6.32808 | 13909 ft | 336 kts | 53° |
| 2026-05-01 09:29 | 50.66785 | 6.35564 | 13210 ft | 331 kts | 52° |
| 2026-05-01 09:30 | 50.69792 | 6.40972 | 11817 ft | 324 kts | 52° |
| 2026-05-01 09:30 | 50.71255 | 6.43611 | 11133 ft | 321 kts | 52° |
| 2026-05-01 09:30 | 50.74151 | 6.48852 | 10038 ft | 307 kts | 53° |
| 2026-05-01 09:31 | 50.75538 | 6.51363 | 9458 ft | 300 kts | 53° |
| 2026-05-01 09:31 | 50.76898 | 6.53833 | 8807 ft | 296 kts | 53° |
| 2026-05-01 09:31 | 50.79567 | 6.58694 | 7719 ft | 285 kts | 53° |
| 2026-05-01 09:32 | 50.80852 | 6.60987 | 7215 ft | 281 kts | 49° |
| 2026-05-01 09:32 | 50.84264 | 6.63998 | 6023 ft | 287 kts | 19° |
| 2026-05-01 09:32 | 50.86211 | 6.64721 | 5430 ft | 288 kts | 13° |
| 2026-05-01 09:33 | 50.88183 | 6.65206 | 4855 ft | 286 kts | 10° |
| 2026-05-01 09:33 | 50.90161 | 6.65577 | 4284 ft | 286 kts | 9° |
| 2026-05-01 09:33 | 50.94122 | 6.66271 | 3971 ft | 288 kts | 10° |
| 2026-05-01 09:34 | 50.96115 | 6.66647 | 3972 ft | 288 kts | 11° |
| 2026-05-01 09:34 | 50.98103 | 6.67042 | 3966 ft | 287 kts | 11° |
| 2026-05-01 09:34 | 51.02088 | 6.67742 | 3978 ft | 290 kts | 4° |
| 2026-05-01 09:35 | 51.04106 | 6.67702 | 3975 ft | 290 kts | 2° |
| 2026-05-01 09:35 | 51.08152 | 6.67441 | 3985 ft | 291 kts | 360° |
| 2026-05-01 09:35 | 51.10175 | 6.67370 | 3984 ft | 289 kts | 7° |
| 2026-05-01 09:36 | 51.12123 | 6.67884 | 3988 ft | 285 kts | 19° |
| 2026-05-01 09:36 | 51.14009 | 6.68813 | 3996 ft | 283 kts | 24° |
| 2026-05-01 09:36 | 51.15868 | 6.69876 | 3984 ft | 283 kts | 25° |
| 2026-05-01 09:36 | 51.17706 | 6.71002 | 3989 ft | 283 kts | 25° |
| 2026-05-01 09:37 | 51.19626 | 6.71792 | 3996 ft | 285 kts | 18° |
| 2026-05-01 09:37 | 51.23474 | 6.73294 | 3998 ft | 284 kts | 19° |
| 2026-05-01 09:37 | 51.25388 | 6.74104 | 3990 ft | 284 kts | 19° |
| 2026-05-01 09:38 | 51.29021 | 6.76300 | 3966 ft | 278 kts | 33° |
| 2026-05-01 09:38 | 51.30693 | 6.77807 | 3497 ft | 274 kts | 36° |
| 2026-05-01 09:38 | 51.32340 | 6.79341 | 3099 ft | 275 kts | 36° |
| 2026-05-01 09:39 | 51.35638 | 6.82417 | 2980 ft | 273 kts | 36° |
| 2026-05-01 09:39 | 51.37278 | 6.83964 | 2982 ft | 274 kts | 36° |
| 2026-05-01 09:39 | 51.38902 | 6.85536 | 2978 ft | 270 kts | 36° |
| 2026-05-01 09:40 | 51.40476 | 6.87099 | 2980 ft | 269 kts | 36° |
| 2026-05-01 09:40 | 51.43454 | 6.90611 | 2983 ft | 261 kts | 60° |
| 2026-05-01 09:40 | 51.44104 | 6.93228 | 3006 ft | 249 kts | 88° |
| 2026-05-01 09:41 | 51.43876 | 6.95880 | 3003 ft | 238 kts | 116° |
| 2026-05-01 09:41 | 51.41362 | 6.98784 | 2977 ft | 236 kts | 175° |
| 2026-05-01 09:41 | 51.39823 | 6.98202 | 3006 ft | 221 kts | 201° |
| 2026-05-01 09:42 | 51.38582 | 6.96941 | 3100 ft | 201 kts | 210° |
| 2026-05-01 09:42 | 51.37621 | 6.95477 | 3030 ft | 182 kts | 223° |
| 2026-05-01 09:42 | 51.36198 | 6.92509 | 2383 ft | 154 kts | 224° |
| 2026-05-01 09:43 | 51.34936 | 6.89866 | 1955 ft | 148 kts | 225° |
| 2026-05-01 09:43 | 51.34312 | 6.88553 | 1751 ft | 148 kts | 224° |
| 2026-05-01 09:43 | 51.33688 | 6.87240 | 1537 ft | 148 kts | 224° |
| 2026-05-01 09:44 | 51.32474 | 6.84665 | 1097 ft | 142 kts | 225° |
| 2026-05-01 09:44 | 51.31883 | 6.83401 | 865 ft | 142 kts | 226° |
| 2026-05-01 09:44 | 51.31283 | 6.82162 | 692 ft | 139 kts | 226° |
| 2026-05-01 09:45 | 51.30704 | 6.80952 | 525 ft | 136 kts | 224° |
| 2026-05-01 09:45 | 51.29567 | 6.78557 | 204 ft | 136 kts | 225° |
| 2026-05-01 09:45 | 51.29022 | 6.77434 | 132 ft | 98 kts | 232° |
| 2026-05-01 09:46 | 51.28732 | 6.76822 | 134 ft | 46 kts | 232° |
| 2026-05-01 09:46 | 51.28626 | 6.76654 | 133 ft | 13 kts | 186° |
| 2026-05-01 09:46 | 51.28566 | 6.76707 | 132 ft | 11 kts | 144° |
| 2026-05-01 09:46 | 51.28487 | 6.76768 | 133 ft | 14 kts | 165° |
| 2026-05-01 09:47 | 51.28391 | 6.76850 | 132 ft | 18 kts | 153° |
| 2026-05-01 09:47 | 51.28266 | 6.76860 | 130 ft | 12 kts | 188° |
| 2026-05-01 09:47 | 51.28220 | 6.76802 | 127 ft | 0 kts | 245° |
| 2026-05-01 09:47 | 51.28220 | 6.76801 | 127 ft | 0 kts | 245° |